Time;durP1;ratioP1;P1;durP2;ratioP2;P2;SDS_P1;SDS_P2;PMS_P1;PMS_P2;Temp;Humidity;BMP_temperature;BMP_pressure;BME280_temperature;BME280_humidity;BME280_pressure;Samples;Min_cycle;Max_cycle;Signal;HPM_P1;HPM_P2
2021/05/17 00:01:09;;;;;;;;;;;10.10;99.90;;;8.61;87.88;94590.47;10308794;28;1995;-83
2021/05/17 00:06:12;;;;;;;;;;;9.60;99.90;;;8.53;87.55;94601.84;10289497;28;2068;-83
2021/05/17 00:11:15;;;;;;;;;;;9.60;99.90;;;8.50;88.36;94604.28;10293362;28;2102;-83
2021/05/17 00:16:18;;;;;;;;;;;10.30;99.90;;;8.42;86.59;94619.13;10287549;28;2010;-85
2021/05/17 00:21:20;;;;;;;;;;;9.50;99.90;;;8.34;88.03;94606.34;10284712;28;2122;-84
2021/05/17 00:26:23;;;;;;;;;;;9.40;99.90;;;8.36;87.98;94613.03;10296001;28;1963;-84
2021/05/17 00:31:28;;;;;;;;;;;10.60;99.90;;;8.31;87.92;94610.38;10311772;28;2081;-84
2021/05/17 00:36:31;;;;;;;;;;;9.40;99.90;;;8.39;86.88;94625.03;10303920;28;1959;-84
2021/05/17 00:41:34;;;;;;;;;;;9.60;99.90;;;8.44;87.40;94633.00;10288926;28;2069;-84
2021/05/17 00:46:38;;;;;;;;;;;10.50;99.90;;;8.56;85.88;94637.94;10297708;28;2144;-85
2021/05/17 00:51:41;;;;;;;;;;;9.50;99.90;;;8.53;87.17;94655.41;10295135;28;2507;-82
2021/05/17 00:56:43;;;;;;;;;;;9.60;99.90;;;8.47;88.32;94661.91;10307503;28;2151;-85
2021/05/17 01:01:46;;;;;;;;;;;10.60;99.90;;;8.47;88.98;94653.06;10292064;28;2121;-85
2021/05/17 01:06:49;;;;;;;;;;;9.50;99.90;;;8.45;87.93;94642.63;10308367;28;2012;-84
2021/05/17 01:11:52;;;;;;;;;;;10.50;99.90;;;8.50;86.95;94655.97;10294345;28;2355;-85
2021/05/17 01:16:55;;;;;;;;;;;9.50;99.90;;;8.55;86.08;94674.66;10295901;28;2183;-83
2021/05/17 01:21:58;;;;;;;;;;;9.50;99.90;;;8.56;86.04;94676.25;10311949;28;2161;-84
2021/05/17 01:27:01;;;;;;;;;;;10.40;99.90;;;8.54;85.69;94678.41;10308176;28;2177;-85
2021/05/17 01:32:05;;;;;;;;;;;9.60;99.90;;;8.55;85.84;94671.97;10284911;28;2067;-83
2021/05/17 01:37:08;;;;;;;;;;;10.30;99.90;;;8.54;85.86;94673.06;10298610;28;2075;-84
2021/05/17 01:42:11;;;;;;;;;;;9.60;99.90;;;8.50;85.49;94669.34;10311625;28;2105;-85
2021/05/17 01:47:14;;;;;;;;;;;10.30;99.90;;;8.47;86.58;94680.66;10317330;28;2051;-85
2021/05/17 01:52:22;;;;;;;;;;;9.50;99.90;;;8.53;85.37;94676.84;10324801;28;2192;-84
2021/05/17 01:57:25;;;;;;;;;;;9.50;99.90;;;8.59;85.24;94670.31;10313024;28;2158;-85
2021/05/17 02:02:28;;;;;;;;;;;10.00;99.90;;;8.61;85.37;94668.16;10321825;28;2178;-85
2021/05/17 02:07:31;;;;;;;;;;;9.60;99.90;;;8.64;84.38;94667.56;10316101;28;2212;-85
2021/05/17 02:12:35;;;;;;;;;;;9.70;99.90;;;8.68;83.89;94672.34;10294611;28;2040;-85
2021/05/17 02:17:38;;;;;;;;;;;10.60;99.90;;;8.76;84.71;94664.47;10297395;28;1776;-86
2021/05/17 02:22:43;;;;;;;;;;;9.70;99.90;;;8.75;84.49;94662.88;10317463;28;2491;-85
2021/05/17 02:27:46;;;;;;;;;;;10.30;99.90;;;8.72;85.22;94670.72;10326333;28;2262;-84
2021/05/17 02:32:50;;;;;;;;;;;9.70;99.90;;;8.75;85.43;94670.13;10305648;28;1946;-85
2021/05/17 02:37:53;;;;;;;;;;;9.70;99.90;;;8.70;85.72;94683.56;10340528;28;1923;-84
2021/05/17 02:42:56;;;;;;;;;;;10.50;99.90;;;8.66;85.57;94676.13;10306971;28;1969;-86
2021/05/17 02:47:59;;;;;;;;;;;9.70;99.90;;;8.56;84.26;94692.31;10296114;28;1800;-83
2021/05/17 02:53:02;;;;;;;;;;;10.60;99.90;;;8.46;83.79;94711.19;10303266;28;2501;-84
2021/05/17 02:58:05;;;;;;;;;;;9.60;99.90;;;8.41;84.66;94710.47;10333537;28;2069;-84
2021/05/17 03:03:08;;;;;;;;;;;10.40;99.90;;;8.43;82.68;94713.63;10305592;28;2022;-84
2021/05/17 03:08:11;;;;;;;;;;;9.50;99.90;;;8.50;81.90;94719.44;10288032;28;2178;-83
2021/05/17 03:13:14;;;;;;;;;;;10.30;99.90;;;8.50;82.65;94730.16;10295407;28;2159;-83
2021/05/17 03:18:16;;;;;;;;;;;9.50;99.90;;;8.51;81.27;94727.19;10302079;28;2142;-84
2021/05/17 03:23:19;;;;;;;;;;;9.50;99.90;;;8.53;81.71;94724.25;10301004;28;2139;-84
2021/05/17 03:28:22;;;;;;;;;;;10.40;99.90;;;8.56;80.94;94740.53;10312492;28;1817;-83
2021/05/17 03:33:24;;;;;;;;;;;9.50;99.90;;;8.63;81.07;94732.94;10292349;28;2173;-83
2021/05/17 03:38:27;;;;;;;;;;;9.60;99.90;;;8.62;80.56;94734.03;10309628;28;2117;-83
2021/05/17 03:43:31;;;;;;;;;;;9.60;99.90;;;8.65;79.93;94727.28;10307274;28;1918;-83
2021/05/17 03:48:40;;;;;;;;;;;9.60;99.90;;;8.68;79.58;94720.56;10309433;28;2197;-84
2021/05/17 03:53:43;;;;;;;;;;;10.50;99.90;;;8.68;79.72;94739.34;10315352;28;2196;-84
2021/05/17 03:58:53;;;;;;;;;;;9.70;99.90;;;8.75;80.01;94745.94;10293205;28;2215;-84
2021/05/17 04:04:04;;;;;;;;;;;10.40;99.90;;;8.75;79.14;94758.53;10313056;28;2178;-84
2021/05/17 04:14:33;;;;;;;;;;;10.10;99.90;;;8.61;81.49;94775.31;10313852;28;2020;-84
2021/05/17 04:19:39;;;;;;;;;;;9.70;99.90;;;8.50;81.80;94773.00;10310350;28;2070;-83
2021/05/17 04:24:42;;;;;;;;;;;9.70;99.90;;;8.36;84.02;94783.59;10316380;28;2027;-85
2021/05/17 04:29:45;;;;;;;;;;;10.60;99.90;;;8.44;83.60;94796.38;10303945;28;2128;-84
2021/05/17 04:34:48;;;;;;;;;;;9.40;99.90;;;8.47;83.84;94790.47;10332223;28;1971;-83
2021/05/17 04:39:51;;;;;;;;;;;10.60;99.90;;;8.55;82.42;94795.19;10320701;28;2061;-85
2021/05/17 04:44:54;;;;;;;;;;;9.50;99.90;;;8.58;79.88;94780.41;10320074;28;1960;-84
2021/05/17 04:49:57;;;;;;;;;;;10.60;99.90;;;8.58;79.77;94781.22;10314225;28;2028;-85
2021/05/17 04:54:59;;;;;;;;;;;9.60;99.90;;;8.59;79.58;94788.19;10340738;28;2006;-85
2021/05/17 05:00:02;;;;;;;;;;;9.60;99.90;;;8.64;79.07;94787.31;10297309;28;2136;-85
2021/05/17 05:05:04;;;;;;;;;;;9.60;99.90;;;8.66;78.49;94796.69;10291093;28;2080;-87
2021/05/17 05:10:07;;;;;;;;;;;10.80;99.90;;;8.78;78.73;94798.13;10325047;28;2219;-86
2021/05/17 05:15:09;;;;;;;;;;;9.70;99.90;;;9.08;76.11;94803.13;10307037;28;2105;-86
2021/05/17 05:20:12;;;;;;;;;;;9.90;99.90;;;9.35;75.92;94804.41;10292217;28;2372;-86
2021/05/17 05:25:16;;;;;;;;;;;10.40;99.90;;;9.32;74.51;94797.75;10292268;28;2258;-86
2021/05/17 05:30:26;;;;;;;;;;;10.30;99.90;;;9.39;74.10;94811.59;10300509;28;2336;-84
2021/05/17 05:35:28;;;;;;;;;;;10.30;99.90;;;9.98;71.62;94807.47;10293625;28;2110;-87
2021/05/17 05:40:30;;;;;;;;;;;10.80;99.90;;;10.03;69.68;94806.63;10312828;28;2253;-87
2021/05/17 05:45:34;;;;;;;;;;;10.90;99.90;;;10.25;70.19;94814.09;10293979;28;2151;-83
2021/05/17 05:50:39;;;;;;;;;;;11.10;99.90;;;10.38;71.30;94809.84;10305760;28;2113;-84
2021/05/17 05:55:41;;;;;;;;;;;11.10;99.90;;;10.29;69.00;94812.38;10271426;28;2262;-86
2021/05/17 06:00:44;;;;;;;;;;;11.20;99.90;;;10.13;70.85;94830.63;10295295;28;2095;-85
2021/05/17 06:05:46;;;;;;;;;;;11.20;99.90;;;9.99;72.51;94827.09;10293587;28;2010;-88
2021/05/17 06:10:49;;;;;;;;;;;11.00;99.90;;;9.84;75.23;94840.75;10306039;28;2102;-86
2021/05/17 06:15:51;;;;;;;;;;;10.90;99.90;;;9.72;76.64;94846.53;10300296;28;2018;-86
2021/05/17 06:20:54;;;;;;;;;;;10.80;99.90;;;9.41;78.59;94854.22;10323722;28;1892;-86
2021/05/17 06:25:57;;;;;;;;;;;10.60;99.90;;;9.42;78.32;94855.81;10349711;28;1894;-85
2021/05/17 06:31:02;;;;;;;;;;;10.50;99.90;;;9.85;78.35;94855.75;10303932;28;1945;-84
2021/05/17 06:36:04;;;;;;;;;;;10.60;99.90;;;10.25;77.41;94854.38;10285276;28;2064;-85
2021/05/17 06:41:07;;;;;;;;;;;11.00;99.90;;;10.24;75.67;94848.22;10279385;28;1874;-85
2021/05/17 06:46:09;;;;;;;;;;;11.20;99.90;;;10.36;74.57;94841.56;10291885;28;1978;-86
2021/05/17 06:51:12;;;;;;;;;;;11.30;99.90;;;10.41;76.09;94861.06;10289959;28;1963;-85
2021/05/17 06:56:19;;;;;;;;;;;11.40;99.90;;;10.76;74.58;94858.88;10278913;28;1849;-86
2021/05/17 07:01:21;;;;;;;;;;;11.50;99.90;;;11.27;71.63;94842.56;10281135;28;2048;-85
2021/05/17 07:06:26;;;;;;;;;;;12.10;99.90;;;11.83;72.02;94848.66;10300835;28;2089;-85
2021/05/17 07:11:41;;;;;;;;;;;12.60;99.90;;;11.82;68.80;94853.25;10288805;28;2077;-86
2021/05/17 07:16:43;;;;;;;;;;;12.90;99.90;;;11.64;67.50;94854.97;10301530;28;2057;-87
2021/05/17 07:27:06;;;;;;;;;;;12.50;99.90;;;11.61;70.00;94866.31;10319525;28;2058;-83
2021/05/17 07:32:10;;;;;;;;;;;12.50;99.90;;;11.93;67.67;94858.41;10305389;28;2017;-85
2021/05/17 07:37:14;;;;;;;;;;;12.80;99.90;;;13.35;62.74;94860.22;10304866;28;1712;-86
2021/05/17 07:42:17;;;;;;;;;;;13.80;99.90;;;13.62;58.71;94853.00;10311831;28;2085;-85
2021/05/17 07:47:19;;;;;;;;;;;14.30;99.90;;;13.66;60.37;94853.94;10313380;28;1965;-86
2021/05/17 07:52:21;;;;;;;;;;;14.70;99.90;;;12.90;62.71;94857.63;10296438;28;2142;-86
2021/05/17 07:57:24;;;;;;;;;;;14.20;99.90;;;13.10;61.60;94867.06;10303250;28;2043;-83
2021/05/17 08:02:26;;;;;;;;;;;14.20;99.90;;;13.11;60.39;94867.91;10305570;28;2074;-85
2021/05/17 08:07:29;;;;;;;;;;;14.10;99.90;;;13.33;58.26;94873.22;10326165;28;1919;-86
2021/05/17 08:12:32;;;;;;;;;;;14.20;99.90;;;13.65;59.11;94873.97;10294193;28;2111;-86
2021/05/17 08:17:34;;;;;;;;;;;14.40;99.90;;;13.13;57.49;94879.16;10308657;28;2093;-84
2021/05/17 08:22:37;;;;;;;;;;;14.30;99.90;;;13.45;57.08;94873.44;10302798;28;2066;-84
2021/05/17 08:27:40;;;;;;;;;;;14.10;99.90;;;13.49;58.19;94874.41;10302983;28;2042;-84
2021/05/17 08:32:42;;;;;;;;;;;14.40;99.90;;;13.35;56.45;94876.41;10304522;28;2066;-85
2021/05/17 08:37:44;;;;;;;;;;;14.30;99.90;;;13.63;54.52;94881.59;10327648;28;2065;-82
2021/05/17 08:42:47;;;;;;;;;;;14.30;99.90;;;13.92;52.84;94876.38;10313320;28;2084;-83
2021/05/17 08:47:49;;;;;;;;;;;14.70;99.90;;;14.17;52.28;94882.91;10306901;28;1923;-84
2021/05/17 08:52:51;;;;;;;;;;;15.00;99.90;;;14.28;52.14;94880.69;10288239;28;2129;-83
2021/05/17 08:57:54;;;;;;;;;;;15.20;99.90;;;13.30;55.09;94879.28;10295794;28;2299;-83
2021/05/17 09:02:56;;;;;;;;;;;14.70;99.90;;;13.36;54.45;94882.59;10315970;28;2214;-83
2021/05/17 09:07:59;;;;;;;;;;;14.40;99.90;;;13.90;51.80;94885.91;10311209;28;2076;-83
2021/05/17 09:13:02;;;;;;;;;;;14.90;99.90;;;14.33;51.40;94869.72;10299798;28;2092;-83
2021/05/17 09:18:04;;;;;;;;;;;15.20;99.90;;;14.70;49.76;94883.72;10297917;28;2635;-83
2021/05/17 09:23:07;;;;;;;;;;;15.50;99.90;;;14.57;50.19;94872.78;10302904;28;2118;-85
2021/05/17 09:28:11;;;;;;;;;;;15.60;99.90;;;14.34;50.49;94868.63;10278639;28;2109;-82
2021/05/17 09:33:14;;;;;;;;;;;15.70;99.90;;;15.04;49.44;94880.94;10299664;28;2186;-84
2021/05/17 09:38:17;;;;;;;;;;;15.80;99.90;;;15.09;49.08;94866.44;10290592;28;2111;-84
2021/05/17 09:43:19;;;;;;;;;;;16.10;99.90;;;15.02;48.79;94877.75;10292492;28;2146;-82
2021/05/17 09:48:22;;;;;;;;;;;16.20;99.90;;;14.92;48.78;94878.09;10318764;28;2406;-84
2021/05/17 09:53:24;;;;;;;;;;;16.00;99.90;;;14.90;48.12;94879.53;10294050;28;2135;-85
2021/05/17 09:58:26;;;;;;;;;;;16.10;99.90;;;15.19;47.53;94881.50;10287711;28;2030;-84
2021/05/17 10:03:29;;;;;;;;;;;16.20;99.90;;;15.27;47.25;94872.56;10305510;28;1857;-83
2021/05/17 10:08:31;;;;;;;;;;;16.20;99.90;;;15.28;47.48;94876.88;10295371;28;2152;-83
2021/05/17 10:13:35;;;;;;;;;;;16.30;99.90;;;15.29;47.88;94886.59;10318684;28;2033;-84
2021/05/17 10:18:37;;;;;;;;;;;16.10;99.90;;;16.01;46.16;94885.56;10327184;28;2099;-85
2021/05/17 10:23:41;;;;;;;;;;;16.70;99.90;;;15.51;47.77;94888.22;10296478;28;2424;-84
2021/05/17 10:28:43;;;;;;;;;;;16.70;99.90;;;15.57;46.73;94876.88;10308005;28;2108;-86
2021/05/17 10:33:46;;;;;;;;;;;16.60;99.90;;;15.48;47.44;94889.69;10324440;28;2152;-84
2021/05/17 10:38:48;;;;;;;;;;;16.60;99.90;;;15.03;48.12;94873.13;10285634;28;2165;-83
2021/05/17 10:43:53;;;;;;;;;;;16.10;99.90;;;16.09;46.30;94882.00;10305745;28;2148;-84
2021/05/17 10:48:55;;;;;;;;;;;16.70;99.90;;;16.20;45.44;94883.22;10296845;28;2112;-84
2021/05/17 10:53:58;;;;;;;;;;;17.20;98.80;;;16.48;43.68;94877.25;10267331;28;2222;-85
2021/05/17 11:04:22;;;;;;;;;;;17.50;95.60;;;16.68;43.14;94891.91;10278179;28;2132;-83
2021/05/17 11:09:24;;;;;;;;;;;17.60;94.40;;;17.48;41.38;94886.13;10277044;28;2061;-84
2021/05/17 11:14:29;;;;;;;;;;;18.10;93.00;;;17.53;39.94;94883.97;10290711;28;2069;-85
2021/05/17 11:19:32;;;;;;;;;;;18.80;88.60;;;16.43;41.98;94874.75;10312737;28;2017;-83
2021/05/17 11:24:34;;;;;;;;;;;17.90;88.40;;;15.77;43.76;94893.53;10299802;28;2105;-82
2021/05/17 11:29:37;;;;;;;;;;;17.10;90.00;;;16.02;43.98;94892.59;10328166;28;2033;-82
2021/05/17 11:34:54;;;;;;;;;;;16.90;91.20;;;16.12;43.32;94881.34;10313395;28;1935;-83
2021/05/17 11:39:56;;;;;;;;;;;17.10;90.10;;;16.25;43.10;94895.00;10306585;28;2018;-85
2021/05/17 11:45:10;;;;;;;;;;;17.00;90.40;;;16.24;42.07;94894.19;10281307;28;2285;-85
2021/05/17 11:50:13;;;;;;;;;;;17.40;87.90;;;15.80;43.46;94895.59;10295621;28;2122;-82
2021/05/17 11:55:15;;;;;;;;;;;17.00;88.70;;;15.90;42.99;94896.03;10292012;28;2308;-84
2021/05/17 12:00:21;;;;;;;;;;;16.80;88.90;;;16.82;40.38;94886.22;10287816;28;2069;-83
2021/05/17 12:05:24;;;;;;;;;;;17.20;87.10;;;16.80;40.69;94883.06;10305415;28;2018;-84
2021/05/17 12:10:26;;;;;;;;;;;17.70;85.70;;;16.87;40.28;94875.16;10294303;28;2486;-83
2021/05/17 12:15:28;;;;;;;;;;;17.80;84.90;;;16.87;41.00;94880.59;10312069;28;2015;-85
2021/05/17 12:20:31;;;;;;;;;;;17.90;84.90;;;16.97;40.57;94883.66;10301437;28;1829;-85
2021/05/17 12:25:33;;;;;;;;;;;17.80;84.70;;;15.77;44.00;94880.78;10293364;28;2139;-83
2021/05/17 12:30:36;;;;;;;;;;;17.10;85.60;;;16.65;41.06;94882.50;10303716;28;2096;-86
2021/05/17 12:35:38;;;;;;;;;;;17.30;85.80;;;16.81;39.82;94888.16;10302389;28;2092;-83
2021/05/17 12:40:41;;;;;;;;;;;17.60;83.50;;;16.92;40.60;94889.31;10299963;28;2034;-82
2021/05/17 12:45:43;;;;;;;;;;;17.90;83.90;;;17.36;38.52;94888.81;10288071;28;2498;-84
2021/05/17 12:50:46;;;;;;;;;;;18.20;81.80;;;17.71;38.41;94898.16;10293593;28;2148;-85
2021/05/17 12:55:48;;;;;;;;;;;18.50;81.10;;;17.89;37.36;94885.16;10305826;28;2069;-85
2021/05/17 13:00:51;;;;;;;;;;;18.70;79.40;;;17.46;38.47;94899.25;10299891;28;2017;-85
2021/05/17 13:05:54;;;;;;;;;;;18.50;79.40;;;17.76;38.44;94894.44;10289722;28;2028;-84
2021/05/17 13:10:56;;;;;;;;;;;18.40;80.10;;;17.25;38.81;94888.50;10313297;28;2207;-84
2021/05/17 13:15:59;;;;;;;;;;;18.50;78.60;;;17.09;38.44;94892.97;10285655;28;2049;-83
2021/05/17 13:21:01;;;;;;;;;;;18.00;78.40;;;17.62;38.07;94880.34;10313302;28;2451;-85
2021/05/17 13:31:33;;;;;;;;;;;18.90;76.40;;;17.16;39.13;94879.63;10275244;28;1477;-86
2021/05/17 13:36:35;;;;;;;;;;;18.40;77.30;;;17.43;38.26;94891.78;10294825;28;1901;-83
2021/05/17 13:41:38;;;;;;;;;;;18.40;77.20;;;16.70;42.59;94931.19;10307191;28;2029;-84
2021/05/17 13:46:53;;;;;;;;;;;18.10;80.50;;;15.85;46.35;94930.66;10302122;28;2214;-84
2021/05/17 13:51:55;;;;;;;;;;;17.10;84.80;;;15.87;42.90;94918.34;10304146;28;2289;-86
2021/05/17 13:56:58;;;;;;;;;;;17.00;81.70;;;16.23;41.55;94929.78;10306595;28;2022;-86
2021/05/17 14:02:00;;;;;;;;;;;17.20;80.70;;;16.33;41.33;94930.16;10296828;28;2276;-85
2021/05/17 14:07:03;;;;;;;;;;;17.40;80.00;;;16.11;42.78;94936.72;10300880;28;2170;-86
2021/05/17 14:12:05;;;;;;;;;;;17.40;80.90;;;15.56;44.30;94945.72;10295311;28;2195;-84
2021/05/17 14:17:09;;;;;;;;;;;16.90;82.60;;;15.31;45.63;94952.81;10305386;28;2313;-85
2021/05/17 14:22:11;;;;;;;;;;;16.60;83.90;;;14.38;48.30;94950.69;10295779;28;2130;-84
2021/05/17 14:27:14;;;;;;;;;;;15.90;85.80;;;14.33;49.28;94942.72;10289770;28;2119;-82
2021/05/17 14:32:17;;;;;;;;;;;15.60;88.00;;;14.73;48.86;94948.00;10292885;28;2145;-83
2021/05/17 14:37:20;;;;;;;;;;;15.50;89.30;;;14.68;51.46;94961.69;10275546;28;2117;-86
2021/05/17 14:42:30;;;;;;;;;;;15.70;91.10;;;13.48;64.07;94983.47;10279717;28;2096;-83
2021/05/17 14:47:32;;;;;;;;;;;15.20;99.90;;;12.64;65.62;95005.00;10294317;28;1975;-87
2021/05/17 14:52:36;;;;;;;;;;;14.30;99.90;;;12.03;68.38;94995.56;10290193;28;2102;-85
2021/05/17 14:57:38;;;;;;;;;;;13.40;99.90;;;12.06;70.62;95003.03;10287159;28;1970;-84
2021/05/17 15:02:41;;;;;;;;;;;13.20;99.90;;;12.35;71.01;95014.25;10289262;28;2250;-85
2021/05/17 15:07:44;;;;;;;;;;;13.30;99.90;;;13.38;68.85;95007.28;10266483;28;2077;-84
2021/05/17 15:12:48;;;;;;;;;;;13.80;99.90;;;14.94;62.54;94994.91;10269911;28;2308;-88
2021/05/17 15:17:50;;;;;;;;;;;15.20;99.90;;;15.47;59.11;94996.44;10258503;28;2100;-84
2021/05/17 15:22:53;;;;;;;;;;;16.10;99.90;;;15.12;57.37;95001.13;10280286;28;2080;-85
2021/05/17 15:27:56;;;;;;;;;;;16.20;99.90;;;14.94;57.16;94992.22;10295610;28;2105;-86
2021/05/17 15:32:58;;;;;;;;;;;16.00;99.90;;;14.39;58.10;94992.03;10266592;28;2054;-87
2021/05/17 15:38:08;;;;;;;;;;;15.70;99.90;;;14.09;59.89;94993.72;10282173;28;2077;-84
2021/05/17 15:43:11;;;;;;;;;;;15.30;99.90;;;13.68;69.06;95019.97;10300632;28;2208;-84
2021/05/17 15:48:13;;;;;;;;;;;15.00;99.90;;;11.74;84.46;95031.63;10311542;28;2131;-85
2021/05/17 15:53:16;;;;;;;;;;;13.70;99.90;;;11.00;86.42;95031.59;10279065;28;1747;-84
2021/05/17 15:58:20;;;;;;;;;;;12.40;99.90;;;11.47;84.61;95045.06;10309907;28;1974;-85
2021/05/17 16:03:22;;;;;;;;;;;12.20;99.90;;;11.69;83.84;95042.50;10314788;28;1857;-82
2021/05/17 16:08:26;;;;;;;;;;;12.30;99.90;;;11.61;83.78;95033.22;10296422;28;1999;-84
2021/05/17 16:13:36;;;;;;;;;;;12.40;99.90;;;11.46;82.25;95038.91;10300503;28;1942;-82
2021/05/17 16:18:46;;;;;;;;;;;12.30;99.90;;;11.97;81.77;95032.56;10288007;28;1392;-83
2021/05/17 16:23:48;;;;;;;;;;;12.60;99.90;;;12.11;79.39;95037.94;10308709;28;1987;-84
2021/05/17 16:28:53;;;;;;;;;;;12.80;99.90;;;11.92;76.25;95039.94;10309965;28;1946;-85
2021/05/17 16:33:57;;;;;;;;;;;12.80;99.90;;;11.69;77.25;95047.09;10333086;28;2038;-84
2021/05/17 16:38:59;;;;;;;;;;;12.70;99.90;;;11.50;78.62;95050.66;10337233;28;1488;-84
2021/05/17 16:44:01;;;;;;;;;;;12.60;99.90;;;11.61;80.02;95046.69;10314537;28;1994;-85
2021/05/17 16:49:04;;;;;;;;;;;12.50;99.90;;;11.52;79.52;95039.59;10298377;28;2004;-85
2021/05/17 16:54:06;;;;;;;;;;;12.50;99.90;;;11.48;81.86;95052.03;10310248;28;2052;-87
2021/05/17 16:59:09;;;;;;;;;;;12.50;99.90;;;11.43;81.33;95060.22;10304704;28;1976;-84
2021/05/17 17:04:13;;;;;;;;;;;12.40;99.90;;;11.24;82.62;95120.25;10300311;28;1802;-85
2021/05/17 17:09:15;;;;;;;;;;;12.40;99.90;;;8.19;84.65;95141.94;10302934;28;2021;-84
2021/05/17 17:14:18;;;;;;;;;;;10.20;99.90;;;7.70;88.28;95146.09;10300544;28;2061;-85
2021/05/17 17:19:20;;;;;;;;;;;9.00;99.90;;;7.62;91.34;95137.81;10306209;28;2022;-82
2021/05/17 17:24:26;;;;;;;;;;;8.60;99.90;;;7.88;94.06;95146.59;10297764;28;2110;-85
2021/05/17 17:29:28;;;;;;;;;;;8.60;99.90;;;8.72;93.14;95124.31;10319708;28;2061;-83
2021/05/17 17:34:33;;;;;;;;;;;9.00;99.90;;;9.53;92.60;95106.78;10315416;28;2038;-84
2021/05/17 17:39:35;;;;;;;;;;;10.10;99.90;;;9.70;90.78;95111.72;10314921;28;1865;-84
2021/05/17 17:44:37;;;;;;;;;;;10.30;99.90;;;9.88;91.67;95108.31;10312325;28;2069;-81
2021/05/17 17:49:40;;;;;;;;;;;10.50;99.90;;;10.04;91.25;95122.34;10300064;28;2088;-84
2021/05/17 17:54:42;;;;;;;;;;;10.70;99.90;;;9.67;90.44;95123.84;10288379;28;2002;-85
2021/05/17 17:59:45;;;;;;;;;;;10.60;99.90;;;9.48;92.80;95131.00;10279646;28;2376;-86
2021/05/17 18:04:47;;;;;;;;;;;10.40;99.90;;;9.40;93.88;95135.06;10275011;28;2137;-83
2021/05/17 18:09:49;;;;;;;;;;;10.30;99.90;;;9.38;93.71;95137.22;10291777;28;2062;-83
2021/05/17 18:14:52;;;;;;;;;;;10.30;99.90;;;9.38;93.29;95147.16;10296529;28;1955;-85
2021/05/17 18:19:54;;;;;;;;;;;10.30;99.90;;;9.36;94.04;95160.88;10285173;28;1979;-84
2021/05/17 18:24:57;;;;;;;;;;;10.20;99.90;;;9.34;93.28;95162.22;10303807;28;2092;-86
2021/05/17 18:29:59;;;;;;;;;;;10.20;99.90;;;9.24;93.58;95175.72;10294133;28;1899;-84
2021/05/17 18:35:11;;;;;;;;;;;10.20;99.90;;;9.14;95.16;95155.91;10307917;28;1907;-85
2021/05/17 18:40:13;;;;;;;;;;;10.10;99.90;;;9.02;95.93;95166.19;10302913;28;1622;-85
2021/05/17 18:45:30;;;;;;;;;;;10.00;99.90;;;9.00;96.34;95171.03;10289820;28;1956;-84
2021/05/17 18:50:32;;;;;;;;;;;9.90;99.90;;;8.90;96.69;95171.88;10294704;28;1816;-84
2021/05/17 18:55:35;;;;;;;;;;;10.40;99.90;;;8.93;97.62;95173.22;10302163;28;1417;-84
2021/05/17 19:00:37;;;;;;;;;;;9.90;99.90;;;8.99;97.43;95185.53;10319680;28;1806;-84
2021/05/17 19:05:40;;;;;;;;;;;10.10;99.90;;;9.03;97.57;95183.88;10287015;28;2217;-83
2021/05/17 19:10:43;;;;;;;;;;;9.90;99.90;;;9.06;97.08;95195.94;10293119;28;2081;-85
2021/05/17 19:15:46;;;;;;;;;;;10.50;99.90;;;9.11;95.77;95204.75;10291421;28;1534;-81
2021/05/17 19:20:49;;;;;;;;;;;10.00;99.90;;;9.16;95.14;95204.72;10295569;28;2048;-86
2021/05/17 19:25:53;;;;;;;;;;;10.10;99.90;;;9.08;94.65;95207.97;10311834;28;1891;-85
2021/05/17 19:30:56;;;;;;;;;;;10.10;99.90;;;9.02;94.05;95222.47;10293009;28;2085;-83
2021/05/17 19:35:58;;;;;;;;;;;10.00;99.90;;;8.88;94.06;95234.91;10320898;28;1656;-84
2021/05/17 19:41:01;;;;;;;;;;;9.90;99.90;;;8.77;93.78;95222.63;10288396;28;1953;-84
2021/05/17 19:46:03;;;;;;;;;;;9.80;99.90;;;8.73;91.96;95229.63;10291955;28;1921;-85
2021/05/17 19:51:07;;;;;;;;;;;10.00;99.90;;;8.70;92.00;95239.00;10296512;28;2137;-84
2021/05/17 19:56:09;;;;;;;;;;;9.70;99.90;;;8.74;91.38;95233.91;10310200;28;1705;-84
2021/05/17 20:01:13;;;;;;;;;;;10.40;99.90;;;8.73;91.58;95249.19;10310896;28;2164;-85
2021/05/17 20:06:15;;;;;;;;;;;9.80;99.90;;;8.63;91.72;95246.53;10292605;28;1899;-84
2021/05/17 20:11:18;;;;;;;;;;;10.70;99.90;;;8.60;92.36;95260.47;10316687;28;2084;-86
2021/05/17 20:16:23;;;;;;;;;;;9.80;99.90;;;8.56;92.48;95257.53;10304678;28;1936;-85
2021/05/17 20:21:26;;;;;;;;;;;9.60;99.90;;;8.58;91.44;95267.97;10305935;28;1881;-83
2021/05/17 20:26:31;;;;;;;;;;;10.40;99.90;;;8.61;90.63;95268.25;10308127;28;2139;-85
2021/05/17 20:31:34;;;;;;;;;;;9.60;99.90;;;8.58;90.36;95276.81;10293706;28;2115;-85
2021/05/17 20:36:37;;;;;;;;;;;9.70;99.90;;;8.57;90.93;95271.72;10301986;28;2188;-84
2021/05/17 20:41:41;;;;;;;;;;;9.60;99.90;;;8.54;91.07;95283.81;10283862;28;2096;-86
2021/05/17 20:46:45;;;;;;;;;;;9.60;99.90;;;8.63;91.38;95284.03;10292588;28;2129;-84
2021/05/17 20:51:51;;;;;;;;;;;9.60;99.90;;;8.69;88.41;95284.81;10290501;28;2309;-84
2021/05/17 20:56:54;;;;;;;;;;;9.70;99.90;;;8.65;88.65;95290.75;10286479;28;2348;-86
2021/05/17 21:01:56;;;;;;;;;;;10.60;99.90;;;8.63;89.41;95290.19;10310342;28;2100;-84
2021/05/17 21:06:59;;;;;;;;;;;9.80;99.90;;;8.65;89.38;95285.38;10297570;28;2077;-84
2021/05/17 21:12:02;;;;;;;;;;;10.30;99.90;;;8.71;88.16;95291.50;10282434;28;2044;-82
2021/05/17 21:17:05;;;;;;;;;;;9.70;99.90;;;8.73;86.49;95302.78;10303641;28;1553;-85
2021/05/17 21:22:10;;;;;;;;;;;10.40;99.90;;;8.75;85.92;95307.84;10288145;28;2091;-85
2021/05/17 21:27:13;;;;;;;;;;;9.80;99.90;;;8.70;86.63;95305.97;10293604;28;2040;-85
2021/05/17 21:32:17;;;;;;;;;;;10.10;99.90;;;8.61;87.42;95295.03;10290233;28;1984;-85
2021/05/17 21:37:21;;;;;;;;;;;9.70;99.90;;;8.46;85.81;95305.78;10289722;28;2448;-85
2021/05/17 21:42:23;;;;;;;;;;;10.00;99.90;;;8.32;87.00;95310.84;10305410;28;1923;-85
2021/05/17 21:47:27;;;;;;;;;;;9.50;99.90;;;8.35;86.31;95312.22;10298182;28;2163;-85
2021/05/17 21:52:32;;;;;;;;;;;9.40;99.90;;;8.37;85.92;95308.19;10307624;28;1961;-85
2021/05/17 21:57:39;;;;;;;;;;;9.40;99.90;;;8.33;86.64;95307.13;10285358;28;2048;-83
2021/05/17 22:02:43;;;;;;;;;;;9.40;99.90;;;8.31;86.71;95313.81;10295307;28;1424;-85
2021/05/17 22:13:08;;;;;;;;;;;9.40;99.90;;;8.43;85.82;95325.06;10293380;28;1888;-86
2021/05/17 22:18:12;;;;;;;;;;;10.10;99.90;;;8.43;85.92;95319.72;10277447;28;2145;-84
2021/05/17 22:23:17;;;;;;;;;;;9.50;99.90;;;8.48;85.22;95317.03;10302374;28;2289;-85
2021/05/17 22:28:19;;;;;;;;;;;10.30;99.90;;;8.51;84.94;95321.84;10301352;28;2371;-85
2021/05/17 22:33:22;;;;;;;;;;;9.50;99.90;;;8.55;84.80;95327.47;10305561;28;1993;-83
2021/05/17 22:38:25;;;;;;;;;;;10.30;99.90;;;8.55;85.00;95322.91;10274462;28;2118;-85
2021/05/17 22:43:27;;;;;;;;;;;9.60;99.90;;;8.52;84.40;95326.13;10289925;28;2296;-84
2021/05/17 22:48:30;;;;;;;;;;;10.50;99.90;;;8.52;85.17;95328.78;10274646;28;2105;-84
2021/05/17 22:53:35;;;;;;;;;;;9.60;99.90;;;8.42;85.51;95328.81;10273444;28;2070;-85
2021/05/17 22:58:39;;;;;;;;;;;9.60;99.90;;;8.38;84.59;95328.56;10293199;28;2030;-85
2021/05/17 23:03:45;;;;;;;;;;;10.40;99.90;;;8.48;84.63;95340.34;10281668;28;1855;-85
2021/05/17 23:08:49;;;;;;;;;;;9.50;99.90;;;8.56;84.42;95324.50;10297073;28;2072;-84
2021/05/17 23:13:52;;;;;;;;;;;9.60;99.90;;;8.59;82.36;95329.34;10300414;28;1801;-87
2021/05/17 23:18:56;;;;;;;;;;;10.40;99.90;;;8.67;82.95;95314.56;10288950;28;2022;-86
2021/05/17 23:24:02;;;;;;;;;;;9.70;99.90;;;8.71;82.02;95320.19;10294699;28;2017;-85
2021/05/17 23:29:06;;;;;;;;;;;10.70;99.90;;;8.73;81.83;95318.03;10293900;28;2120;-85
2021/05/17 23:34:09;;;;;;;;;;;9.70;99.90;;;8.70;81.74;95313.22;10300766;28;2069;-83
2021/05/17 23:39:14;;;;;;;;;;;10.10;99.90;;;8.74;81.61;95319.66;10297429;28;1568;-84
2021/05/17 23:44:20;;;;;;;;;;;9.80;99.90;;;8.72;82.90;95344.03;10284953;28;2030;-83
2021/05/17 23:49:23;;;;;;;;;;;9.80;99.90;;;8.78;81.73;95328.72;10311279;28;1967;-83
2021/05/17 23:54:30;;;;;;;;;;;10.40;99.90;;;8.81;82.43;95325.50;10284079;28;2076;-86